createdAt,value
2018-07-17T00:02:24.254Z,100967.21
2018-07-17T00:04:52.566Z,100970.27
2018-07-17T00:07:20.871Z,100963.53
2018-07-17T00:09:49.173Z,100966.92
2018-07-17T00:12:17.548Z,100961.71
2018-07-17T00:14:45.867Z,100961.77
2018-07-17T00:17:14.191Z,100961.76
2018-07-17T00:19:42.498Z,100954.38
2018-07-17T00:22:10.819Z,100955.47
2018-07-17T00:24:39.061Z,100956.55
2018-07-17T00:27:07.321Z,100958.77
2018-07-17T00:29:35.606Z,100953.30
2018-07-17T00:32:03.877Z,100958.78
2018-07-17T00:34:32.203Z,100955.23
2018-07-17T00:37:00.510Z,100953.06
2018-07-17T00:39:28.770Z,100956.09
2018-07-17T00:41:57.072Z,100958.55
2018-07-17T00:44:25.346Z,100955.52
2018-07-17T00:46:53.641Z,100951.41
2018-07-17T00:49:21.961Z,100955.55
2018-07-17T00:51:50.234Z,100950.89
2018-07-17T00:54:18.513Z,100945.42
2018-07-17T00:56:46.778Z,100949.27
2018-07-17T00:59:15.070Z,100946.52
2018-07-17T01:01:48.679Z,100945.72
2018-07-17T01:04:22.149Z,100946.56
2018-07-17T01:06:55.849Z,100941.87
2018-07-17T01:09:29.365Z,100938.89
2018-07-17T01:12:03.194Z,100937.51
2018-07-17T01:14:41.834Z,100939.97
2018-07-17T01:17:10.278Z,100937.52
2018-07-17T01:19:38.933Z,100927.38
2018-07-17T01:22:07.467Z,100931.48
2018-07-17T01:24:35.737Z,100930.67
2018-07-17T01:27:04.097Z,100932.84
2018-07-17T01:29:32.395Z,100930.10
2018-07-17T01:32:00.643Z,100931.77
2018-07-17T01:34:28.893Z,100929.84
2018-07-17T01:36:57.193Z,100930.38
2018-07-17T01:39:25.459Z,100936.94
2018-07-17T01:41:53.708Z,100934.75
2018-07-17T01:44:21.969Z,100931.16
2018-07-17T01:46:50.259Z,100930.62
2018-07-17T01:49:18.538Z,100929.77
2018-07-17T01:51:46.796Z,100927.59
2018-07-17T01:54:15.095Z,100925.69
2018-07-17T01:56:43.364Z,100919.93
2018-07-17T01:59:11.915Z,100914.71
2018-07-17T02:01:40.186Z,100921.27
2018-07-17T02:04:08.451Z,100918.52
2018-07-17T02:06:36.741Z,100912.48
2018-07-17T02:09:06.262Z,100913.31
2018-07-17T02:11:34.583Z,100912.22
2018-07-17T02:14:02.887Z,100916.58
2018-07-17T02:16:31.400Z,100916.03
2018-07-17T02:18:59.806Z,100912.19
2018-07-17T02:21:28.347Z,100911.88
2018-07-17T02:23:56.595Z,100911.10
2018-07-17T02:26:24.840Z,100917.66
2018-07-17T02:28:53.122Z,100919.30
2018-07-17T02:31:21.398Z,100915.16
2018-07-17T02:33:49.646Z,100919.25
2018-07-17T02:36:17.943Z,100911.58
2018-07-17T02:38:46.183Z,100911.59
2018-07-17T02:41:14.466Z,100902.25
2018-07-17T02:43:42.734Z,100907.19
2018-07-17T02:46:11.189Z,100904.67
2018-07-17T02:48:39.474Z,100906.31
2018-07-17T02:51:08.595Z,100904.41
2018-07-17T02:53:36.913Z,100907.40
2018-07-17T02:56:05.247Z,100910.67
2018-07-17T02:58:33.841Z,100909.05
2018-07-17T03:01:02.107Z,100909.64
2018-07-17T03:03:30.373Z,100911.50
2018-07-17T03:05:58.677Z,100912.86
2018-07-17T03:08:26.929Z,100913.13
2018-07-17T03:10:55.170Z,100910.89
2018-07-17T03:13:23.420Z,100908.44
2018-07-17T03:15:51.743Z,100918.02
2018-07-17T03:18:20.006Z,100917.19
2018-07-17T03:20:48.287Z,100923.73
2018-07-17T03:23:16.584Z,100918.52
2018-07-17T03:25:44.882Z,100925.58
2018-07-17T03:28:13.136Z,100918.45
2018-07-17T03:30:41.403Z,100918.97
2018-07-17T03:33:09.702Z,100916.47
2018-07-17T03:35:37.956Z,100914.56
2018-07-17T03:38:06.223Z,100914.25
2018-07-17T03:40:34.476Z,100914.27
2018-07-17T03:43:02.746Z,100918.05
2018-07-17T03:45:31.010Z,100918.35
2018-07-17T03:47:59.321Z,100922.14
2018-07-17T03:50:27.652Z,100920.55
2018-07-17T03:52:55.947Z,100915.42
2018-07-17T03:55:24.257Z,100915.80
2018-07-17T03:57:52.577Z,100914.95
2018-07-17T04:00:20.872Z,100906.49
2018-07-17T04:02:49.209Z,100905.41
2018-07-17T04:05:17.443Z,100913.38
2018-07-17T04:07:45.790Z,100908.20
2018-07-17T04:10:16.084Z,100911.48
2018-07-17T04:12:44.336Z,100905.77
2018-07-17T04:15:12.688Z,100904.45
2018-07-17T04:17:40.945Z,100906.86
2018-07-17T04:20:09.234Z,100901.73
2018-07-17T04:22:37.611Z,100903.67
2018-07-17T04:25:05.871Z,100909.69
2018-07-17T04:27:34.162Z,100912.33
2018-07-17T04:30:02.765Z,100914.23
2018-07-17T04:32:31.067Z,100917.58
2018-07-17T04:34:59.369Z,100912.41
2018-07-17T04:37:27.684Z,100912.66
2018-07-17T04:39:55.985Z,100920.88
2018-07-17T04:42:24.531Z,100917.65
2018-07-17T04:44:52.782Z,100911.69
2018-07-17T04:47:21.159Z,100916.37
2018-07-17T04:49:49.506Z,100915.00
2018-07-17T04:52:17.788Z,100919.39
2018-07-17T04:54:46.085Z,100923.80
2018-07-17T04:57:14.334Z,100923.55
2018-07-17T04:59:42.605Z,100926.27
2018-07-17T05:02:11.110Z,100929.29
2018-07-17T05:04:39.388Z,100938.61
2018-07-17T05:07:08.030Z,100937.77
2018-07-17T05:09:36.451Z,100938.85
2018-07-17T05:12:04.766Z,100940.20
2018-07-17T05:14:33.128Z,100947.81
2018-07-17T05:17:01.538Z,100945.55
2018-07-17T05:19:29.825Z,100940.86
2018-07-17T05:21:58.162Z,100947.09
2018-07-17T05:24:26.427Z,100945.75
2018-07-17T05:26:54.929Z,100950.28
2018-07-17T05:29:23.202Z,100952.78
2018-07-17T05:31:51.601Z,100952.66
2018-07-17T05:34:19.893Z,100947.91
2018-07-17T05:36:48.190Z,100949.51
2018-07-17T05:39:16.516Z,100949.41
2018-07-17T05:41:44.755Z,100956.66
2018-07-17T05:44:13.083Z,100956.00
2018-07-17T05:46:41.390Z,100957.51
2018-07-17T05:49:09.678Z,100953.53
2018-07-17T05:51:38.202Z,100944.53
2018-07-17T05:54:06.517Z,100946.00
2018-07-17T05:56:34.824Z,100955.12
2018-07-17T05:59:03.414Z,100950.89
2018-07-17T06:01:31.699Z,100949.33
2018-07-17T06:03:59.994Z,100952.20
2018-07-17T06:06:28.302Z,100958.48
2018-07-17T06:08:56.693Z,100954.03
2018-07-17T06:11:24.955Z,100957.59
2018-07-17T06:13:53.204Z,100959.05
2018-07-17T06:16:21.470Z,100964.92
2018-07-17T06:18:50.054Z,100960.56
2018-07-17T06:21:18.412Z,100962.11
2018-07-17T06:23:46.719Z,100964.47
2018-07-17T06:26:14.996Z,100963.27
2018-07-17T06:28:43.573Z,100966.19
2018-07-17T06:31:11.829Z,100966.01
2018-07-17T06:33:40.096Z,100969.09
2018-07-17T06:36:08.404Z,100967.14
2018-07-17T06:38:36.740Z,100970.48
2018-07-17T06:41:05.045Z,100971.61
2018-07-17T06:43:33.334Z,100964.88
2018-07-17T06:46:01.707Z,100968.01
2018-07-17T06:48:29.966Z,100969.44
2018-07-17T06:50:58.265Z,100970.98
2018-07-17T06:53:26.526Z,100977.03
2018-07-17T06:55:54.805Z,100975.58
2018-07-17T06:58:23.108Z,100968.92
2018-07-17T07:00:51.496Z,100968.94
2018-07-17T07:03:19.801Z,100969.67
2018-07-17T07:05:48.089Z,100964.33
2018-07-17T07:08:16.740Z,100969.98
2018-07-17T07:10:45.040Z,100972.73
2018-07-17T07:13:13.347Z,100968.57
2018-07-17T07:15:41.581Z,100970.29
2018-07-17T07:18:09.849Z,100963.73
2018-07-17T07:20:38.316Z,100973.60
2018-07-17T07:23:07.067Z,100974.20
2018-07-17T07:25:35.336Z,100971.38
2018-07-17T07:28:03.693Z,100972.69
2018-07-17T07:30:31.992Z,100969.42
2018-07-17T07:33:00.280Z,100962.52
2018-07-17T07:35:28.598Z,100965.91
2018-07-17T07:37:56.887Z,100964.20
2018-07-17T07:40:25.181Z,100964.47
2018-07-17T07:42:53.517Z,100968.53
2018-07-17T07:45:21.720Z,100974.52
2018-07-17T07:47:50.007Z,100974.16
2018-07-17T07:50:19.287Z,100976.41
2018-07-17T07:52:47.615Z,100972.16
2018-07-17T07:55:15.901Z,100972.89
2018-07-17T07:57:44.203Z,100969.86
2018-07-17T08:00:12.683Z,100976.33
2018-07-17T08:02:40.974Z,100981.38
2018-07-17T08:05:09.378Z,100978.35
2018-07-17T08:07:37.692Z,100981.27
2018-07-17T08:10:06.811Z,100987.58
2018-07-17T08:12:35.119Z,100982.38
2018-07-17T08:15:03.409Z,100977.98
2018-07-17T08:17:31.796Z,100980.12
2018-07-17T08:20:00.128Z,100981.63
2018-07-17T08:22:28.397Z,100978.50
2018-07-17T08:24:56.700Z,100979.00
2018-07-17T08:27:25.000Z,100977.54
2018-07-17T08:29:53.254Z,100980.50
2018-07-17T08:32:21.529Z,100981.42
2018-07-17T08:34:49.785Z,100978.44
2018-07-17T08:37:18.081Z,100984.56
2018-07-17T08:39:48.502Z,100978.69
2018-07-17T08:42:16.824Z,100983.84
2018-07-17T08:44:45.099Z,100982.91
2018-07-17T08:47:13.414Z,100984.23
2018-07-17T08:49:41.815Z,100984.73
2018-07-17T08:52:10.085Z,100987.04
2018-07-17T08:54:38.558Z,100984.83
2018-07-17T08:57:06.716Z,100987.05
2018-07-17T08:59:35.111Z,100995.70
2018-07-17T09:02:03.401Z,100992.69
2018-07-17T09:04:31.637Z,100991.62
2018-07-17T09:06:59.951Z,100989.75
2018-07-17T09:09:28.254Z,100991.02
2018-07-17T09:11:56.516Z,100990.83
2018-07-17T09:14:24.799Z,100993.28
2018-07-17T09:16:53.092Z,100992.22
2018-07-17T09:19:21.399Z,100996.31
2018-07-17T09:21:49.710Z,100992.18
2018-07-17T09:24:18.067Z,100994.02
2018-07-17T09:26:46.388Z,101002.01
2018-07-17T09:29:14.666Z,101003.63
2018-07-17T09:31:42.902Z,101004.08
2018-07-17T09:34:11.209Z,101003.27
2018-07-17T09:36:39.724Z,101000.64
2018-07-17T09:39:09.027Z,101003.50
2018-07-17T09:41:37.277Z,101005.47
2018-07-17T09:44:05.602Z,101001.66
2018-07-17T09:46:33.822Z,101003.74
2018-07-17T09:49:02.082Z,101001.73
2018-07-17T09:51:30.396Z,100999.44
2018-07-17T09:53:58.703Z,100999.73
2018-07-17T09:56:26.951Z,101008.00
2018-07-17T09:58:55.474Z,101002.03
2018-07-17T10:01:29.066Z,101002.11
2018-07-17T10:03:57.550Z,101003.27
2018-07-17T10:06:25.875Z,101008.31
2018-07-17T10:08:54.101Z,101003.33
2018-07-17T10:11:22.429Z,101005.34
2018-07-17T10:13:50.709Z,101002.92
2018-07-17T10:16:18.960Z,101006.78
2018-07-17T10:18:47.238Z,101004.70
2018-07-17T10:21:15.505Z,101010.41
2018-07-17T10:23:43.831Z,101004.75
2018-07-17T10:26:12.056Z,101007.95
2018-07-17T10:28:40.329Z,101005.71
2018-07-17T10:31:08.632Z,100998.56
2018-07-17T10:33:36.920Z,101001.83
2018-07-17T10:36:05.253Z,101008.73
2018-07-17T10:38:33.517Z,101011.98
2018-07-17T10:41:01.795Z,101006.13
2018-07-17T10:43:30.041Z,101003.33
2018-07-17T10:45:58.359Z,101013.61
2018-07-17T10:48:26.608Z,101005.19
2018-07-17T10:50:54.895Z,101003.50
2018-07-17T10:53:23.271Z,100999.22
2018-07-17T10:55:51.581Z,101004.55
2018-07-17T10:58:19.862Z,101002.23
2018-07-17T11:00:48.139Z,101000.89
2018-07-17T11:03:16.447Z,101016.53
2018-07-17T11:05:44.725Z,101007.28
2018-07-17T11:08:13.084Z,101003.05
2018-07-17T11:10:41.408Z,101003.98
2018-07-17T11:13:09.665Z,101005.00
2018-07-17T11:15:37.994Z,100998.03
2018-07-17T11:18:06.322Z,100993.66
2018-07-17T11:20:36.484Z,100999.14
2018-07-17T11:23:04.764Z,100986.08
2018-07-17T11:25:33.071Z,100982.83
2018-07-17T11:28:01.444Z,100982.83
2018-07-17T11:30:29.769Z,100977.31
2018-07-17T11:32:58.077Z,100986.34
2018-07-17T11:35:26.347Z,100981.59
2018-07-17T11:37:54.674Z,100980.23
2018-07-17T11:40:22.911Z,100980.02
2018-07-17T11:42:51.289Z,100983.55
2018-07-17T11:45:19.596Z,100974.30
2018-07-17T11:47:47.922Z,100977.52
2018-07-17T11:50:16.150Z,100974.53
2018-07-17T11:52:44.539Z,100973.73
2018-07-17T11:55:12.819Z,100985.63
2018-07-17T11:57:41.140Z,100982.69
2018-07-17T12:00:09.460Z,100977.28
2018-07-17T12:02:37.738Z,100984.50
2018-07-17T12:05:06.201Z,100985.13
2018-07-17T12:07:34.588Z,100973.43
2018-07-17T12:10:03.096Z,100980.03
2018-07-17T12:12:31.462Z,100978.52
2018-07-17T12:14:59.760Z,100978.09
2018-07-17T12:17:28.055Z,100976.55
2018-07-17T12:19:56.488Z,100973.94
2018-07-17T12:22:24.666Z,100985.36
2018-07-17T12:24:53.173Z,100974.52
2018-07-17T12:27:21.523Z,100976.43
2018-07-17T12:29:49.775Z,100981.20
2018-07-17T12:32:18.139Z,100978.94
2018-07-17T12:34:46.480Z,100980.22
2018-07-17T12:37:14.847Z,100981.39
2018-07-17T12:39:43.399Z,100974.03
2018-07-17T12:42:11.700Z,100980.36
2018-07-17T12:44:40.159Z,100970.96
2018-07-17T12:47:08.428Z,100971.48
2018-07-17T12:49:36.730Z,100977.98
2018-07-17T12:52:04.981Z,100971.06
2018-07-17T12:54:33.301Z,100965.93
2018-07-17T12:57:01.606Z,100969.53
2018-07-17T12:59:29.880Z,100970.84
2018-07-17T13:01:58.251Z,100973.03
2018-07-17T13:04:26.516Z,100974.93
2018-07-17T13:06:54.801Z,100970.97
2018-07-17T13:09:23.128Z,100970.98
2018-07-17T13:11:51.452Z,100969.25
2018-07-17T13:14:19.747Z,100970.15
2018-07-17T13:16:48.114Z,100969.55
2018-07-17T13:19:16.392Z,100980.97
2018-07-17T13:21:44.713Z,100966.27
2018-07-17T13:24:12.998Z,100958.44
2018-07-17T13:26:41.306Z,100974.66
2018-07-17T13:29:09.712Z,100969.56
2018-07-17T13:31:38.037Z,100972.02
2018-07-17T13:34:06.358Z,100965.31
2018-07-17T13:36:34.894Z,100966.38
2018-07-17T13:39:03.266Z,100979.78
2018-07-17T13:41:31.595Z,100964.33
2018-07-17T13:44:00.069Z,100974.77
2018-07-17T13:46:28.620Z,100971.43
2018-07-17T13:48:57.046Z,100966.66
2018-07-17T13:51:25.416Z,100970.98
2018-07-17T13:53:53.674Z,100977.45
2018-07-17T13:56:22.034Z,100974.29
2018-07-17T13:58:50.323Z,100978.77
2018-07-17T14:01:18.926Z,100972.39
2018-07-17T14:03:47.215Z,100977.82
2018-07-17T14:06:15.536Z,100981.41
2018-07-17T14:08:43.888Z,100978.51
2018-07-17T14:11:12.147Z,100994.50
2018-07-17T14:13:40.591Z,100984.63
2018-07-17T14:16:08.853Z,100997.03
2018-07-17T14:18:37.565Z,101004.60
2018-07-17T14:21:05.889Z,101002.02
2018-07-17T14:23:34.277Z,100997.77
2018-07-17T14:26:02.895Z,100996.19
2018-07-17T14:28:31.173Z,100999.66
2018-07-17T14:30:59.443Z,101003.94
2018-07-17T14:33:27.735Z,100990.80
2018-07-17T14:35:56.028Z,100997.91
2018-07-17T14:38:24.316Z,100994.52
2018-07-17T14:40:52.626Z,100990.69
2018-07-17T14:43:20.932Z,100995.09
2018-07-17T14:45:49.187Z,100990.77
2018-07-17T14:48:17.601Z,100984.73
2018-07-17T14:50:45.888Z,100993.10
2018-07-17T14:53:14.217Z,100985.77
2018-07-17T14:55:42.510Z,100994.30
2018-07-17T14:58:10.872Z,100998.20
2018-07-17T15:00:39.165Z,100984.63
2018-07-17T15:03:07.455Z,100993.82
2018-07-17T15:05:35.772Z,100994.05
2018-07-17T15:08:05.093Z,101004.17
2018-07-17T15:10:33.398Z,100995.47
2018-07-17T15:13:01.806Z,100997.03
2018-07-17T15:15:30.174Z,100998.13
2018-07-17T15:17:58.758Z,101019.16
2018-07-17T15:20:27.193Z,101009.84
2018-07-17T15:22:55.466Z,101011.61
2018-07-17T15:25:23.863Z,101002.53
2018-07-17T15:27:52.296Z,101007.32
2018-07-17T15:30:20.558Z,101002.14
2018-07-17T15:32:48.811Z,100998.20
2018-07-17T15:35:17.241Z,101001.19
2018-07-17T15:37:45.437Z,101013.14
2018-07-17T15:40:13.738Z,101016.33
2018-07-17T15:42:42.050Z,101008.77
2018-07-17T15:45:10.574Z,101004.30
2018-07-17T15:47:39.522Z,101011.20
2018-07-17T15:50:07.788Z,101009.48
2018-07-17T15:52:36.129Z,101008.62
2018-07-17T15:55:04.404Z,101012.75
2018-07-17T15:57:32.757Z,101008.08
2018-07-17T16:00:01.104Z,101023.31
2018-07-17T16:02:29.375Z,101027.66
2018-07-17T16:04:57.815Z,101018.47
2018-07-17T16:07:26.141Z,101008.25
2018-07-17T16:09:54.520Z,101008.45
2018-07-17T16:12:22.810Z,101014.55
2018-07-17T16:14:51.187Z,101020.14
2018-07-17T16:17:19.513Z,101027.88
2018-07-17T16:19:47.768Z,101026.67
2018-07-17T16:22:16.080Z,101034.50
2018-07-17T16:24:44.366Z,101034.06
2018-07-17T16:27:12.673Z,101033.72
2018-07-17T16:29:40.957Z,101030.02
2018-07-17T16:32:09.333Z,101033.17
2018-07-17T16:34:37.618Z,101038.29
2018-07-17T16:37:06.041Z,101026.93
2018-07-17T16:39:34.905Z,101023.52
2018-07-17T16:42:03.394Z,101026.69
2018-07-17T16:44:31.650Z,101044.61
2018-07-17T16:46:59.937Z,101052.16
2018-07-17T16:49:28.467Z,101043.19
2018-07-17T16:51:56.768Z,101037.31
2018-07-17T16:54:25.046Z,101038.45
2018-07-17T16:56:53.319Z,101042.36
2018-07-17T16:59:22.033Z,101050.87
2018-07-17T17:01:50.273Z,101040.42
2018-07-17T17:04:18.527Z,101067.83
2018-07-17T17:06:46.833Z,101039.30
2018-07-17T17:09:15.161Z,101048.83
2018-07-17T17:11:43.486Z,101047.14
2018-07-17T17:14:11.757Z,101049.39
2018-07-17T17:16:40.354Z,101052.06
2018-07-17T17:19:08.735Z,101057.67
2018-07-17T17:21:37.515Z,101055.34
2018-07-17T17:24:06.428Z,101062.30
2018-07-17T17:26:35.512Z,101069.73
2018-07-17T17:29:03.757Z,101076.86
2018-07-17T17:31:32.161Z,101082.27
2018-07-17T17:34:00.449Z,101082.84
2018-07-17T17:36:28.758Z,101078.56
2018-07-17T17:38:57.115Z,101081.48
2018-07-17T17:41:25.393Z,101090.91
2018-07-17T17:43:53.711Z,101096.48
2018-07-17T17:46:22.032Z,101099.86
2018-07-17T17:48:50.364Z,101100.22
2018-07-17T17:51:18.700Z,101114.06
2018-07-17T17:53:47.042Z,101114.48
2018-07-17T17:56:15.328Z,101115.48
2018-07-17T17:58:43.647Z,101125.23
2018-07-17T18:01:11.889Z,101123.41
2018-07-17T18:03:40.203Z,101127.72
2018-07-17T18:06:08.509Z,101134.95
2018-07-17T18:08:36.771Z,101135.95
2018-07-17T18:11:05.136Z,101137.88
2018-07-17T18:13:33.392Z,101144.36
2018-07-17T18:16:01.713Z,101152.55
2018-07-17T18:18:30.058Z,101153.46
2018-07-17T18:20:58.316Z,101164.91
2018-07-17T18:23:26.620Z,101168.22
2018-07-17T18:25:54.901Z,101168.23
2018-07-17T18:28:23.334Z,101173.31
2018-07-17T18:30:51.677Z,101177.50
2018-07-17T18:33:19.995Z,101185.61
2018-07-17T18:35:48.393Z,101196.14
2018-07-17T18:38:16.673Z,101199.03
2018-07-17T18:40:45.170Z,101197.03
2018-07-17T18:43:13.433Z,101204.25
2018-07-17T18:45:41.703Z,101203.20
2018-07-17T18:48:10.310Z,101208.92
2018-07-17T18:50:39.048Z,101205.40
2018-07-17T18:53:07.448Z,101214.64
2018-07-17T18:55:35.726Z,101212.33
2018-07-17T18:58:04.057Z,101223.67
2018-07-17T19:00:32.359Z,101223.85
2018-07-17T19:03:00.697Z,101221.16
2018-07-17T19:05:28.997Z,101237.17
2018-07-17T19:07:57.311Z,101236.49
2018-07-17T19:10:25.599Z,101241.23
2018-07-17T19:12:53.919Z,101235.78
2018-07-17T19:15:22.251Z,101245.81
2018-07-17T19:17:50.564Z,101245.48
2018-07-17T19:20:18.866Z,101248.62
2018-07-17T19:22:47.148Z,101257.77
2018-07-17T19:25:15.393Z,101262.34
2018-07-17T19:27:43.893Z,101261.41
2018-07-17T19:30:12.165Z,101262.90
2018-07-17T19:32:40.455Z,101265.17
2018-07-17T19:35:08.831Z,101269.88
2018-07-17T19:37:37.104Z,101278.25
2018-07-17T19:40:06.220Z,101281.33
2018-07-17T19:42:34.580Z,101284.83
2018-07-17T19:45:02.837Z,101285.51
2018-07-17T19:47:31.227Z,101301.86
2018-07-17T19:49:59.481Z,101302.98
2018-07-17T19:52:27.797Z,101302.81
2018-07-17T19:54:56.122Z,101303.16
2018-07-17T19:57:24.472Z,101294.43
2018-07-17T19:59:52.911Z,101301.38
2018-07-17T20:02:21.200Z,101307.19
2018-07-17T20:04:49.538Z,101305.80
2018-07-17T20:07:17.848Z,101306.11
2018-07-17T20:09:46.157Z,101309.19
2018-07-17T20:12:14.485Z,101310.84
2018-07-17T20:14:42.774Z,101304.81
2018-07-17T20:17:11.165Z,101308.69
2018-07-17T20:19:39.451Z,101313.91
2018-07-17T20:22:07.879Z,101315.55
2018-07-17T20:24:36.278Z,101319.69
2018-07-17T20:27:04.612Z,101323.02
2018-07-17T20:29:33.021Z,101320.28
2018-07-17T20:32:01.719Z,101320.58
2018-07-17T20:34:30.143Z,101323.61
2018-07-17T20:36:58.453Z,101321.40
2018-07-17T20:39:26.788Z,101324.69
2018-07-17T20:41:55.113Z,101331.28
2018-07-17T20:44:23.419Z,101336.23
2018-07-17T20:46:51.730Z,101335.13
2018-07-17T20:49:20.039Z,101341.17
2018-07-17T20:51:51.696Z,101345.27
2018-07-17T20:54:20.467Z,101335.95
2018-07-17T20:56:48.805Z,101337.88
2018-07-17T20:59:17.104Z,101338.68
2018-07-17T21:01:45.380Z,101331.02
2018-07-17T21:04:13.629Z,101342.52
2018-07-17T21:06:41.928Z,101341.15
2018-07-17T21:09:11.163Z,101342.23
2018-07-17T21:11:39.445Z,101343.89
2018-07-17T21:14:07.923Z,101346.35
2018-07-17T21:16:36.158Z,101348.27
2018-07-17T21:19:04.453Z,101349.06
2018-07-17T21:21:32.712Z,101355.37
2018-07-17T21:24:00.941Z,101354.25
2018-07-17T21:26:29.263Z,101360.81
2018-07-17T21:28:57.538Z,101364.67
2018-07-17T21:31:26.208Z,101362.15
2018-07-17T21:33:54.481Z,101364.30
2018-07-17T21:36:22.757Z,101362.14
2018-07-17T21:38:51.046Z,101363.45
2018-07-17T21:41:19.366Z,101366.78
2018-07-17T21:43:47.723Z,101373.04
2018-07-17T21:46:16.043Z,101371.08
2018-07-17T21:48:44.345Z,101377.39
2018-07-17T21:51:12.607Z,101379.00
2018-07-17T21:53:40.905Z,101371.89
2018-07-17T21:56:09.244Z,101383.33
2018-07-17T21:58:37.530Z,101384.16
2018-07-17T22:01:05.838Z,101380.88
2018-07-17T22:03:34.124Z,101384.12
2018-07-17T22:06:02.615Z,101381.61
2018-07-17T22:08:30.873Z,101381.31
2018-07-17T22:10:59.115Z,101376.11
2018-07-17T22:13:27.427Z,101378.53
2018-07-17T22:15:55.798Z,101377.41
2018-07-17T22:18:24.060Z,101385.27
2018-07-17T22:20:52.372Z,101375.92
2018-07-17T22:23:20.619Z,101379.27
2018-07-17T22:25:48.856Z,101385.06
2018-07-17T22:28:17.110Z,101386.54
2018-07-17T22:30:45.369Z,101383.79
2018-07-17T22:33:13.678Z,101379.87
2018-07-17T22:35:41.964Z,101386.19
2018-07-17T22:38:10.217Z,101386.47
2018-07-17T22:40:38.501Z,101387.70
2018-07-17T22:43:06.802Z,101387.70
2018-07-17T22:45:35.237Z,101388.05
2018-07-17T22:48:03.567Z,101391.08
2018-07-17T22:50:31.917Z,101391.12
2018-07-17T22:53:00.257Z,101392.52
2018-07-17T22:55:28.519Z,101398.38
2018-07-17T22:57:56.883Z,101404.72
2018-07-17T23:00:25.320Z,101401.65
2018-07-17T23:02:53.757Z,101395.41
2018-07-17T23:05:22.080Z,101397.16
2018-07-17T23:07:50.394Z,101399.02
2018-07-17T23:10:18.684Z,101402.27
2018-07-17T23:12:46.949Z,101404.13
2018-07-17T23:15:15.187Z,101401.56
2018-07-17T23:17:43.478Z,101400.44
2018-07-17T23:20:11.725Z,101404.79
2018-07-17T23:22:58.497Z,101400.77
2018-07-17T23:25:28.026Z,101402.30
2018-07-17T23:27:57.358Z,101409.41
2018-07-17T23:30:25.659Z,101406.05
2018-07-17T23:32:54.095Z,101410.45
2018-07-17T23:35:23.438Z,101411.91
2018-07-17T23:37:52.183Z,101408.69
2018-07-17T23:40:20.892Z,101404.78
2018-07-17T23:42:49.193Z,101405.84
2018-07-17T23:45:18.218Z,101408.55
2018-07-17T23:47:47.460Z,101404.23
2018-07-17T23:50:15.712Z,101407.03
2018-07-17T23:52:43.993Z,101406.73
2018-07-17T23:55:12.379Z,101398.48
2018-07-17T23:57:40.744Z,101400.62
